createdAt,value
2022-07-28T00:00:12.893Z,17.17
2022-07-28T00:02:39.865Z,16.87
2022-07-28T00:05:07.849Z,17.30
2022-07-28T00:07:35.148Z,17.29
2022-07-28T00:10:02.366Z,17.40
2022-07-28T00:12:29.382Z,17.42
2022-07-28T00:14:56.768Z,17.26
2022-07-28T00:17:23.979Z,17.38
2022-07-28T00:19:51.017Z,17.20
2022-07-28T00:22:18.987Z,17.10
2022-07-28T00:24:46.286Z,17.08
2022-07-28T00:27:19.285Z,17.07
2022-07-28T00:29:50.249Z,17.07
2022-07-28T00:32:20.459Z,17.00
2022-07-28T00:34:47.963Z,16.94
2022-07-28T00:37:15.227Z,16.93
2022-07-28T00:39:43.616Z,16.85
2022-07-28T00:42:10.839Z,16.87
2022-07-28T00:44:41.792Z,16.76
2022-07-28T00:47:09.406Z,16.72
2022-07-28T00:49:36.456Z,16.80
2022-07-28T00:52:06.305Z,16.78
2022-07-28T00:54:34.606Z,16.74
2022-07-28T00:57:01.787Z,16.68
2022-07-28T00:59:28.870Z,16.38
2022-07-28T01:01:56.632Z,16.62
2022-07-28T01:04:25.046Z,16.54
2022-07-28T01:07:27.003Z,16.43
2022-07-28T01:10:35.057Z,16.16
2022-07-28T01:13:28.898Z,16.30
2022-07-28T01:16:06.548Z,16.10
2022-07-28T01:18:48.069Z,16.03
2022-07-28T01:21:24.137Z,16.17
2022-07-28T01:24:25.290Z,16.08
2022-07-28T01:27:09.979Z,15.95
2022-07-28T01:30:02.991Z,16.17
2022-07-28T01:32:44.265Z,15.85
2022-07-28T01:35:23.523Z,15.93
2022-07-28T01:37:59.683Z,15.97
2022-07-28T01:40:32.661Z,16.00
2022-07-28T01:43:06.083Z,16.08
2022-07-28T01:45:38.165Z,16.17
2022-07-28T01:48:07.013Z,16.00
2022-07-28T01:50:37.153Z,16.16
2022-07-28T01:53:05.027Z,16.16
2022-07-28T01:55:33.687Z,16.12
2022-07-28T01:58:02.728Z,16.25
2022-07-28T02:00:30.878Z,16.01
2022-07-28T02:03:00.766Z,16.28
2022-07-28T02:05:28.800Z,16.11
2022-07-28T02:07:57.564Z,16.35
2022-07-28T02:10:27.439Z,16.43
2022-07-28T02:12:55.575Z,16.58
2022-07-28T02:15:24.162Z,16.65
2022-07-28T02:17:54.139Z,16.64
2022-07-28T02:20:23.478Z,16.65
2022-07-28T02:22:52.327Z,16.64
2022-07-28T02:25:21.482Z,16.55
2022-07-28T02:28:01.673Z,16.61
2022-07-28T02:30:49.871Z,16.46
2022-07-28T02:33:57.775Z,16.27
2022-07-28T02:36:25.855Z,16.11
2022-07-28T02:38:56.741Z,16.35
2022-07-28T02:41:33.592Z,16.23
2022-07-28T02:44:07.748Z,16.53
2022-07-28T02:46:44.749Z,16.59
2022-07-28T02:49:19.279Z,16.70
2022-07-28T02:51:49.282Z,16.95
2022-07-28T02:54:18.514Z,16.81
2022-07-28T02:56:53.294Z,16.72
2022-07-28T02:59:23.387Z,16.86
2022-07-28T03:01:52.341Z,16.80
2022-07-28T03:04:38.422Z,16.92
2022-07-28T03:07:06.738Z,17.12
2022-07-28T03:09:47.352Z,17.04
2022-07-28T03:12:15.181Z,16.94
2022-07-28T03:14:42.181Z,16.95
2022-07-28T03:17:09.919Z,16.79
2022-07-28T03:19:37.334Z,16.81
2022-07-28T03:22:05.490Z,16.90
2022-07-28T03:24:54.777Z,16.87
2022-07-28T03:27:53.003Z,16.76
2022-07-28T03:30:27.934Z,16.63
2022-07-28T03:33:01.645Z,16.60
2022-07-28T03:35:31.533Z,16.66
2022-07-28T03:38:23.909Z,16.57
2022-07-28T03:40:55.009Z,16.74
2022-07-28T03:43:25.582Z,16.52
2022-07-28T03:45:53.108Z,16.63
2022-07-28T03:48:23.483Z,16.43
2022-07-28T03:50:50.707Z,16.57
2022-07-28T03:53:26.374Z,16.55
2022-07-28T03:55:53.967Z,16.61
2022-07-28T03:58:26.210Z,16.33
2022-07-28T04:00:57.085Z,16.33
2022-07-28T04:03:42.615Z,16.40
2022-07-28T04:06:13.149Z,16.23
2022-07-28T04:08:40.538Z,16.44
2022-07-28T04:11:08.306Z,16.41
2022-07-28T04:13:37.145Z,16.44
2022-07-28T04:16:07.197Z,16.43
2022-07-28T04:18:35.603Z,16.59
2022-07-28T04:21:02.742Z,16.77
2022-07-28T04:23:30.895Z,16.89
2022-07-28T04:25:57.932Z,16.95
2022-07-28T04:28:25.445Z,17.02
2022-07-28T04:30:52.573Z,16.82
2022-07-28T04:33:20.690Z,16.83
2022-07-28T04:35:47.841Z,16.99
2022-07-28T04:38:17.280Z,17.08
2022-07-28T04:40:44.402Z,17.41
2022-07-28T04:43:11.532Z,17.34
2022-07-28T04:45:38.762Z,17.41
2022-07-28T04:48:14.284Z,17.53
2022-07-28T04:50:45.609Z,17.17
2022-07-28T04:53:13.624Z,17.07
2022-07-28T04:55:40.723Z,17.29
2022-07-28T04:58:09.268Z,17.18
2022-07-28T05:00:36.588Z,17.39
2022-07-28T05:03:04.419Z,17.45
2022-07-28T05:05:31.435Z,17.16
2022-07-28T05:07:58.586Z,17.44
2022-07-28T05:10:25.725Z,17.42
2022-07-28T05:12:54.484Z,17.65
2022-07-28T05:15:21.600Z,17.58
2022-07-28T05:17:49.955Z,17.83
2022-07-28T05:20:17.469Z,17.81
2022-07-28T05:22:53.810Z,18.06
2022-07-28T05:25:23.718Z,18.48
2022-07-28T05:27:51.995Z,18.32
2022-07-28T05:30:19.526Z,18.43
2022-07-28T05:32:48.058Z,18.72
2022-07-28T05:35:15.572Z,18.90
2022-07-28T05:37:43.826Z,18.94
2022-07-28T05:40:15.530Z,19.37
2022-07-28T05:42:47.882Z,19.48
2022-07-28T05:45:17.594Z,19.72
2022-07-28T05:47:52.765Z,20.10
2022-07-28T05:50:23.017Z,20.47
2022-07-28T05:52:51.307Z,20.79
2022-07-28T05:55:19.060Z,21.11
2022-07-28T05:57:46.652Z,21.58
2022-07-28T06:00:23.212Z,21.98
2022-07-28T06:02:50.970Z,22.50
2022-07-28T06:05:20.876Z,22.53
2022-07-28T06:07:50.612Z,22.29
2022-07-28T06:10:21.258Z,22.91
2022-07-28T06:12:52.061Z,23.43
2022-07-28T06:15:28.273Z,23.96
2022-07-28T06:17:56.027Z,23.05
2022-07-28T06:20:25.268Z,23.96
2022-07-28T06:22:55.070Z,24.30
2022-07-28T06:25:25.959Z,24.68
2022-07-28T06:27:59.814Z,25.43
2022-07-28T06:30:27.826Z,25.39
2022-07-28T06:32:56.573Z,24.91
2022-07-28T06:35:24.222Z,24.48
2022-07-28T06:37:52.782Z,25.28
2022-07-28T06:40:21.181Z,25.80
2022-07-28T06:42:49.521Z,26.36
2022-07-28T06:45:20.870Z,25.49
2022-07-28T06:47:53.215Z,26.80
2022-07-28T06:50:25.002Z,27.03
2022-07-28T06:52:57.217Z,27.35
2022-07-28T06:55:34.670Z,27.08
2022-07-28T06:58:03.855Z,27.88
2022-07-28T07:00:31.275Z,28.03
2022-07-28T07:02:58.402Z,27.65
2022-07-28T07:05:26.331Z,28.21
2022-07-28T07:07:53.293Z,27.93
2022-07-28T07:10:20.436Z,27.80
2022-07-28T07:12:47.453Z,27.43
2022-07-28T07:15:14.499Z,28.70
2022-07-28T07:17:42.471Z,28.78
2022-07-28T07:20:10.891Z,29.31
2022-07-28T07:22:47.749Z,28.95
2022-07-28T07:25:18.387Z,28.73
2022-07-28T07:27:46.166Z,28.61
2022-07-28T07:30:19.099Z,28.68
2022-07-28T07:32:46.135Z,29.11
2022-07-28T07:35:13.425Z,29.17
2022-07-28T07:37:40.872Z,28.30
2022-07-28T07:40:09.511Z,29.04
2022-07-28T07:42:37.112Z,27.51
2022-07-28T07:45:04.985Z,26.47
2022-07-28T07:47:31.945Z,26.18
2022-07-28T07:50:01.780Z,25.68
2022-07-28T07:52:30.739Z,27.60
2022-07-28T07:54:57.843Z,27.68
2022-07-28T07:57:24.968Z,27.22
2022-07-28T07:59:52.104Z,26.96
2022-07-28T08:02:19.129Z,26.47
2022-07-28T08:04:46.250Z,26.16
2022-07-28T08:07:14.907Z,26.02
2022-07-28T08:09:41.933Z,26.47
2022-07-28T08:12:09.334Z,26.02
2022-07-28T08:14:36.512Z,26.08
2022-07-28T08:17:03.534Z,26.91
2022-07-28T08:19:30.536Z,28.05
2022-07-28T08:21:57.541Z,28.23
2022-07-28T08:24:27.636Z,27.63
2022-07-28T08:27:02.496Z,27.76
2022-07-28T08:29:30.055Z,26.56
2022-07-28T08:31:57.713Z,26.36
2022-07-28T08:34:31.615Z,25.85
2022-07-28T08:37:03.869Z,26.46
2022-07-28T08:39:36.064Z,26.90
2022-07-28T08:42:24.622Z,28.16
2022-07-28T08:44:58.470Z,28.73
2022-07-28T08:47:40.715Z,28.56
2022-07-28T08:50:14.244Z,28.31
2022-07-28T08:52:45.511Z,29.50
2022-07-28T08:55:19.464Z,30.16
2022-07-28T08:57:47.383Z,31.19
2022-07-28T09:00:15.035Z,30.40
2022-07-28T09:02:46.500Z,30.89
2022-07-28T09:05:24.593Z,29.43
2022-07-28T09:07:55.637Z,28.64
2022-07-28T09:10:23.515Z,28.97
2022-07-28T09:12:51.538Z,29.91
2022-07-28T09:15:19.865Z,29.91
2022-07-28T09:17:46.990Z,29.86
2022-07-28T09:20:17.039Z,31.54
2022-07-28T09:23:03.426Z,30.73
2022-07-28T09:25:31.506Z,32.21
2022-07-28T09:28:14.188Z,31.34
2022-07-28T09:30:53.331Z,31.19
2022-07-28T09:33:41.302Z,30.47
2022-07-28T09:36:16.193Z,31.24
2022-07-28T09:38:44.771Z,33.22
2022-07-28T09:41:12.473Z,32.81
2022-07-28T09:43:43.396Z,34.11
2022-07-28T09:46:20.568Z,34.02
2022-07-28T09:48:51.171Z,31.86
2022-07-28T09:51:24.318Z,33.87
2022-07-28T09:53:52.577Z,33.59
2022-07-28T09:56:20.102Z,32.52
2022-07-28T09:58:59.313Z,33.06
2022-07-28T10:01:29.242Z,31.98
2022-07-28T10:04:04.258Z,31.92
2022-07-28T10:06:35.769Z,32.64
2022-07-28T10:09:07.871Z,33.62
2022-07-28T10:11:41.090Z,33.59
2022-07-28T10:14:08.758Z,32.98
2022-07-28T10:16:42.972Z,32.39
2022-07-28T10:19:10.099Z,33.44
2022-07-28T10:21:45.765Z,33.46
2022-07-28T10:24:22.962Z,34.46
2022-07-28T10:26:52.745Z,34.68
2022-07-28T10:29:22.641Z,34.56
2022-07-28T10:31:53.321Z,33.25
2022-07-28T10:34:39.295Z,34.06
2022-07-28T10:37:23.046Z,34.08
2022-07-28T10:40:10.878Z,34.49
2022-07-28T10:42:43.744Z,33.27
2022-07-28T10:45:12.114Z,33.67
2022-07-28T10:47:39.986Z,33.53
2022-07-28T10:50:08.722Z,34.50
2022-07-28T10:52:48.153Z,33.85
2022-07-28T10:55:55.142Z,32.38
2022-07-28T10:58:46.033Z,32.76
2022-07-28T11:01:49.673Z,33.09
2022-07-28T11:04:46.318Z,32.22
2022-07-28T11:07:20.076Z,30.97
2022-07-28T11:09:47.991Z,31.90
2022-07-28T11:12:16.094Z,31.74
2022-07-28T11:14:44.933Z,30.72
2022-07-28T11:17:13.054Z,30.73
2022-07-28T11:22:34.829Z,31.72
2022-07-28T11:25:19.578Z,31.68
2022-07-28T11:27:51.878Z,31.71
2022-07-28T11:30:28.907Z,32.58
2022-07-28T11:32:56.943Z,33.45
2022-07-28T11:35:26.474Z,33.50
2022-07-28T11:38:04.940Z,32.45
2022-07-28T11:40:33.729Z,31.83
2022-07-28T11:43:36.876Z,32.17
2022-07-28T11:46:07.724Z,29.93
2022-07-28T11:48:41.591Z,30.25
2022-07-28T11:51:13.012Z,30.78
2022-07-28T11:53:46.850Z,30.98
2022-07-28T11:56:38.098Z,31.43
2022-07-28T11:59:11.158Z,30.73
2022-07-28T12:01:38.848Z,31.19
2022-07-28T12:04:14.399Z,30.43
2022-07-28T12:06:43.107Z,30.12
2022-07-28T12:09:13.132Z,29.99
2022-07-28T12:11:41.832Z,30.57
2022-07-28T12:14:16.994Z,29.95
2022-07-28T12:16:49.764Z,29.67
2022-07-28T12:19:19.272Z,29.96
2022-07-28T12:21:55.558Z,29.74
2022-07-28T12:24:45.562Z,30.09
2022-07-28T12:27:15.211Z,29.53
2022-07-28T12:29:42.979Z,30.01
2022-07-28T12:32:10.597Z,28.18
2022-07-28T12:34:40.503Z,29.24
2022-07-28T12:37:12.265Z,29.84
2022-07-28T12:39:44.265Z,29.89
2022-07-28T12:42:13.039Z,30.17
2022-07-28T12:44:43.746Z,29.16
2022-07-28T12:47:13.957Z,29.37
2022-07-28T12:49:41.848Z,30.09
2022-07-28T12:52:23.788Z,30.08
2022-07-28T12:54:55.625Z,29.24
2022-07-28T12:57:49.312Z,29.16
2022-07-28T13:00:24.417Z,29.43
2022-07-28T13:02:56.041Z,29.83
2022-07-28T13:05:58.412Z,30.18
2022-07-28T13:08:29.287Z,29.52
2022-07-28T13:10:58.857Z,29.81
2022-07-28T13:13:27.325Z,30.44
2022-07-28T13:16:18.307Z,30.21
2022-07-28T13:19:13.471Z,29.93
2022-07-28T13:21:57.716Z,29.86
2022-07-28T13:24:28.609Z,29.12
2022-07-28T13:26:56.841Z,29.84
2022-07-28T13:29:24.366Z,30.13
2022-07-28T13:31:56.679Z,30.01
2022-07-28T13:34:23.805Z,29.86
2022-07-28T13:36:52.409Z,30.04
2022-07-28T13:39:19.449Z,29.61
2022-07-28T13:41:58.304Z,29.80
2022-07-28T13:44:31.677Z,29.40
2022-07-28T13:47:00.632Z,29.59
2022-07-28T13:49:31.522Z,28.43
2022-07-28T13:52:00.175Z,29.19
2022-07-28T13:54:28.095Z,29.25
2022-07-28T13:57:15.331Z,28.86
2022-07-28T13:59:43.883Z,29.44
2022-07-28T14:02:15.868Z,29.38
2022-07-28T14:04:45.934Z,29.69
2022-07-28T14:07:22.080Z,29.32
2022-07-28T14:09:51.038Z,27.87
2022-07-28T14:12:18.436Z,28.35
2022-07-28T14:14:48.021Z,28.48
2022-07-28T14:20:11.031Z,28.88
2022-07-28T14:22:38.098Z,28.31
2022-07-28T14:25:05.731Z,28.75
2022-07-28T14:27:33.397Z,28.39
2022-07-28T14:30:03.711Z,28.23
2022-07-28T14:32:32.261Z,28.28
2022-07-28T14:34:59.398Z,28.40
2022-07-28T14:37:26.574Z,28.69
2022-07-28T14:39:53.644Z,28.61
2022-07-28T14:42:20.691Z,28.62
2022-07-28T14:44:47.836Z,28.08
2022-07-28T14:47:15.614Z,28.02
2022-07-28T14:49:57.104Z,28.19
2022-07-28T14:52:27.239Z,28.30
2022-07-28T14:54:58.154Z,28.41
2022-07-28T14:57:50.215Z,28.66
2022-07-28T15:00:17.573Z,28.89
2022-07-28T15:02:45.671Z,28.79
2022-07-28T15:05:13.351Z,28.82
2022-07-28T15:07:42.329Z,28.53
2022-07-28T15:10:10.665Z,28.23
2022-07-28T15:12:38.043Z,28.01
2022-07-28T15:15:05.941Z,28.15
2022-07-28T15:17:33.933Z,28.37
2022-07-28T15:20:01.393Z,28.61
2022-07-28T15:22:28.564Z,28.64
2022-07-28T15:24:55.534Z,28.76
2022-07-28T15:27:23.692Z,28.75
2022-07-28T15:29:52.226Z,28.26
2022-07-28T15:32:27.142Z,28.82
2022-07-28T15:34:55.686Z,28.65
2022-07-28T15:37:23.146Z,28.64
2022-07-28T15:39:50.308Z,28.96
2022-07-28T15:42:17.585Z,28.77
2022-07-28T15:44:44.597Z,28.56
2022-07-28T15:47:11.613Z,27.82
2022-07-28T15:49:38.696Z,27.95
2022-07-28T15:52:06.092Z,28.28
2022-07-28T15:54:33.178Z,28.33
2022-07-28T15:57:00.184Z,28.12
2022-07-28T15:59:49.286Z,28.28
2022-07-28T16:02:17.495Z,28.24
2022-07-28T16:04:54.523Z,27.98
2022-07-28T16:07:23.688Z,28.22
2022-07-28T16:09:54.896Z,28.01
2022-07-28T16:12:25.439Z,27.36
2022-07-28T16:14:56.694Z,27.52
2022-07-28T16:17:25.412Z,27.72
2022-07-28T16:19:53.849Z,27.31
2022-07-28T16:22:21.974Z,27.53
2022-07-28T16:24:50.827Z,27.47
2022-07-28T16:27:18.959Z,27.20
2022-07-28T16:29:46.043Z,27.35
2022-07-28T16:32:13.248Z,26.94
2022-07-28T16:34:40.991Z,26.38
2022-07-28T16:37:08.457Z,26.75
2022-07-28T16:39:36.094Z,26.93
2022-07-28T16:42:03.396Z,27.09
2022-07-28T16:44:31.238Z,27.33
2022-07-28T16:46:58.931Z,27.19
2022-07-28T16:49:26.083Z,27.20
2022-07-28T16:51:54.763Z,27.30
2022-07-28T16:54:22.883Z,27.24
2022-07-28T16:56:50.847Z,27.23
2022-07-28T16:59:17.998Z,27.39
2022-07-28T17:01:46.389Z,27.16
2022-07-28T17:04:16.400Z,27.08
2022-07-28T17:06:43.755Z,27.04
2022-07-28T17:09:11.595Z,27.02
2022-07-28T17:11:38.928Z,27.01
2022-07-28T17:14:05.917Z,27.05
2022-07-28T17:16:33.235Z,26.99
2022-07-28T17:19:00.717Z,26.93
2022-07-28T17:21:27.902Z,26.20
2022-07-28T17:23:55.284Z,26.48
2022-07-28T17:29:12.787Z,26.26
2022-07-28T17:31:39.824Z,26.09
2022-07-28T17:34:08.984Z,26.05
2022-07-28T17:36:36.383Z,26.02
2022-07-28T17:39:07.090Z,25.95
2022-07-28T17:41:34.887Z,25.84
2022-07-28T17:44:02.488Z,26.08
2022-07-28T17:46:30.038Z,25.63
2022-07-28T17:48:58.721Z,25.40
2022-07-28T17:51:27.569Z,25.25
2022-07-28T17:53:55.625Z,25.22
2022-07-28T17:56:22.912Z,25.27
2022-07-28T17:58:50.086Z,25.02
2022-07-28T18:01:17.185Z,25.28
2022-07-28T18:03:57.691Z,24.90
2022-07-28T18:06:36.041Z,25.14
2022-07-28T18:09:12.097Z,25.33
2022-07-28T18:11:57.165Z,25.28
2022-07-28T18:14:27.771Z,25.35
2022-07-28T18:16:55.513Z,25.17
2022-07-28T18:19:22.798Z,24.99
2022-07-28T18:21:49.967Z,25.27
2022-07-28T18:24:18.044Z,25.15
2022-07-28T18:26:45.515Z,25.17
2022-07-28T18:29:12.534Z,24.98
2022-07-28T18:31:45.830Z,24.93
2022-07-28T18:34:14.112Z,24.75
2022-07-28T18:36:41.400Z,24.75
2022-07-28T18:39:08.687Z,24.70
2022-07-28T18:41:46.257Z,24.56
2022-07-28T18:44:19.478Z,24.44
2022-07-28T18:46:47.661Z,24.17
2022-07-28T18:49:15.766Z,23.96
2022-07-28T18:51:45.169Z,23.88
2022-07-28T18:54:17.359Z,23.75
2022-07-28T18:56:45.872Z,23.47
2022-07-28T18:59:12.938Z,23.48
2022-07-28T19:01:39.994Z,23.23
2022-07-28T19:04:07.122Z,23.17
2022-07-28T19:06:35.295Z,23.14
2022-07-28T19:09:02.759Z,23.02
2022-07-28T19:11:32.181Z,22.94
2022-07-28T19:14:00.415Z,22.64
2022-07-28T19:16:27.503Z,22.55
2022-07-28T19:18:54.741Z,22.68
2022-07-28T19:21:21.766Z,22.67
2022-07-28T19:23:49.276Z,22.60
2022-07-28T19:26:16.755Z,22.32
2022-07-28T19:28:44.503Z,22.20
2022-07-28T19:31:11.746Z,22.11
2022-07-28T19:33:42.978Z,22.08
2022-07-28T19:36:13.891Z,22.03
2022-07-28T19:38:41.371Z,22.16
2022-07-28T19:41:09.935Z,21.94
2022-07-28T19:43:37.522Z,21.96
2022-07-28T19:46:05.254Z,22.06
2022-07-28T19:48:32.421Z,21.98
2022-07-28T19:51:00.033Z,21.32
2022-07-28T19:53:31.907Z,21.04
2022-07-28T19:55:59.692Z,20.98
2022-07-28T19:58:26.764Z,21.23
2022-07-28T20:00:56.698Z,21.18
2022-07-28T20:04:00.878Z,21.27
2022-07-28T20:06:12.699Z,21.07
2022-07-28T20:08:40.152Z,21.12
2022-07-28T20:11:08.199Z,21.15
2022-07-28T20:13:35.684Z,21.35
2022-07-28T20:16:02.695Z,21.26
2022-07-28T20:18:29.716Z,21.08
2022-07-28T20:21:06.256Z,20.91
2022-07-28T20:23:33.510Z,21.10
2022-07-28T20:26:00.690Z,21.24
2022-07-28T20:28:27.840Z,21.15
2022-07-28T20:30:55.104Z,21.19
2022-07-28T20:33:22.239Z,20.97
2022-07-28T20:35:50.099Z,21.04
2022-07-28T20:38:23.341Z,21.11
2022-07-28T20:40:51.713Z,21.13
2022-07-28T20:43:18.850Z,21.03
2022-07-28T20:45:46.596Z,21.15
2022-07-28T20:48:14.607Z,21.00
2022-07-28T20:50:42.821Z,21.09
2022-07-28T20:53:10.585Z,20.80
2022-07-28T20:55:38.081Z,20.81
2022-07-28T20:58:06.115Z,20.91
2022-07-28T21:00:33.648Z,20.89
2022-07-28T21:03:00.894Z,21.03
2022-07-28T21:05:34.924Z,20.94
2022-07-28T21:08:06.464Z,20.97
2022-07-28T21:10:37.113Z,20.79
2022-07-28T21:13:04.442Z,20.68
2022-07-28T21:15:31.836Z,20.78
2022-07-28T21:17:59.814Z,20.72
2022-07-28T21:20:27.113Z,20.71
2022-07-28T21:22:54.581Z,20.70
2022-07-28T21:25:22.813Z,20.63
2022-07-28T21:28:08.791Z,20.67
2022-07-28T21:30:37.088Z,20.64
2022-07-28T21:33:04.299Z,20.31
2022-07-28T21:35:31.515Z,20.43
2022-07-28T21:37:58.569Z,20.32
2022-07-28T21:40:26.382Z,20.32
2022-07-28T21:42:53.609Z,20.36
2022-07-28T21:45:21.275Z,20.19
2022-07-28T21:47:48.899Z,20.32
2022-07-28T21:50:16.266Z,19.98
2022-07-28T21:52:43.574Z,19.99
2022-07-28T21:55:10.810Z,19.88
2022-07-28T21:57:38.219Z,19.99
2022-07-28T22:00:09.095Z,19.60
2022-07-28T22:02:36.278Z,19.59
2022-07-28T22:05:05.041Z,19.40
2022-07-28T22:07:32.287Z,19.26
2022-07-28T22:09:59.342Z,19.19
2022-07-28T22:12:26.323Z,19.13
2022-07-28T22:14:53.373Z,19.00
2022-07-28T22:17:20.560Z,19.13
2022-07-28T22:19:47.673Z,18.97
2022-07-28T22:22:18.266Z,18.83
2022-07-28T22:24:46.136Z,19.14
2022-07-28T22:27:13.396Z,19.05
2022-07-28T22:29:40.413Z,19.17
2022-07-28T22:32:26.657Z,18.70
2022-07-28T22:34:58.157Z,18.64
2022-07-28T22:37:25.433Z,18.73
2022-07-28T22:39:55.704Z,18.49
2022-07-28T22:42:22.875Z,18.38
2022-07-28T22:44:50.083Z,18.63
2022-07-28T22:47:17.171Z,18.43
2022-07-28T22:49:44.275Z,18.62
2022-07-28T22:52:11.402Z,18.54
2022-07-28T22:54:39.976Z,18.72
2022-07-28T22:57:58.058Z,18.26
2022-07-28T23:00:26.877Z,18.62
2022-07-28T23:02:55.116Z,18.37
2022-07-28T23:05:22.591Z,18.35
2022-07-28T23:07:51.126Z,18.35
2022-07-28T23:10:20.731Z,18.10
2022-07-28T23:12:47.794Z,18.18
2022-07-28T23:15:14.794Z,18.19
2022-07-28T23:17:41.949Z,18.28
2022-07-28T23:20:10.105Z,18.41
2022-07-28T23:22:38.022Z,18.13
2022-07-28T23:25:05.774Z,18.02
2022-07-28T23:27:32.856Z,18.05
2022-07-28T23:29:59.996Z,18.12
2022-07-28T23:32:27.052Z,18.17
2022-07-28T23:34:54.241Z,17.97
2022-07-28T23:37:21.342Z,18.10
2022-07-28T23:39:48.464Z,18.00
2022-07-28T23:42:16.402Z,17.96
2022-07-28T23:44:43.501Z,18.18
2022-07-28T23:47:10.769Z,18.19
2022-07-28T23:49:37.912Z,18.31
2022-07-28T23:52:05.418Z,18.15
2022-07-28T23:54:32.631Z,17.93
2022-07-28T23:56:59.730Z,17.79
2022-07-28T23:59:26.775Z,17.86
